Effective Sunday, March 17, 2024, the National Weather Service National Data Buoy Center will discontinue its Dial-A-Buoy Interactive Voice Response system. For more information, see Service Change Notice 24-06 (PDF).

Station 46011 (LLNR 215) - SANTA MARIA - 21NM NW of Point Arguello, CA Image indicating link to RSS feed of recent meteorological observations for station 46011


Conditions at 46011 as of
(7:00 am PST)
1500 GMT on 03/03/2024:
     

Click on the graph icon in the table below to see a time series plot of the last five days of that observation.

5-day plot - Wind Direction Wind Direction (WDIR): NW ( 320 deg true )
5-day plot - Wind Speed Wind Speed (WSPD): 7.8 kts
5-day plot - Wind Gust Wind Gust (GST): 11.7 kts
5-day plot - Water Temperature Water Temperature (WTMP): 57.7 °F
5-day plot - Wind Speed at 10 Meters Wind Speed at 10 meters (WSPD10M): 9.7 kts
5-day plot - Wind Speed at 20 Meters Wind Speed at 20 meters (WSPD20M): 9.7 kts
5-day plot -  Wind Speed, Wind Gust and Atmospheric Pressure Combined plot of Wind Speed, Gust, and Air Pressure
Supplemental Measurements
Highest 1-minute Wind Speed
Time (PST)5-day plot - 1-Minute Wind Speed WSPD 5-day plot - 1-Minute Wind Direction WDIR
6:56 am 9.7 kts-
Previous observations
TIME
(PST)
5-day plot - Wind Direction
WDIR
 
5-day plot - Wind Speed
WSPD
kts
5-day plot - Wind Gust
GST
kts
5-day plot - Wave Height
WVHT
ft
5-day plot - Dominant Wave Period
DPD
sec
5-day plot - Average Wave Period
APD
sec
5-day plot - Mean Wave Direction
MWD
 
5-day plot - Atmospheric Pressure
PRES
in
5-day plot - Pressure Tendency
PTDY
in
5-day plot - Air Temperature
ATMP
°F
5-day plot - Water Temperature
WTMP
°F
5-day plot - Dew Point
DEWP
°F
5-day plot - Salinity
SAL
psu
5-day plot - Visibility
VIS
nmi
5-day plot - Tide (above MLLW)
TIDE
ft
2024-03-03 06:50 am NW 7.8 13.6 12.5 159.7 NW--- 57.6----
2024-03-03 06:40 am NW 7.8 11.7------- 57.6----
2024-03-03 06:30 amWNW 7.8 11.7------- 57.6----
2024-03-03 06:20 amWNW 11.7 15.5 11.5 148.9WNW--- 57.6----
2024-03-03 06:10 amWNW 11.7 15.5 11.5-8.9WNW--- 57.6----
2024-03-03 06:00 amWNW 9.7 13.6------- 57.6----
2024-03-03 05:50 amWNW 9.7 13.6 14.4 149.7 NW--- 57.6----
2024-03-03 05:40 am W 9.7 13.6------- 57.6----
2024-03-03 05:30 amWNW 9.7 13.6------- 57.6----
2024-03-03 05:20 am W 11.7 15.5 11.8 158.6 NW--- 57.6----
2024-03-03 05:10 am W 13.6 15.5------- 57.6----
2024-03-03 05:00 am W 13.6 17.5------- 57.6----
2024-03-03 04:50 am W 13.6 17.5 13.1 129.3WNW--- 57.6----
2024-03-03 04:40 am W 13.6 17.5------- 57.6----
2024-03-03 04:30 amWNW 15.5 21.4------- 57.6----
2024-03-03 04:20 amWNW 13.6 21.4 13.5 159.3 NW--- 57.6----
2024-03-03 04:10 amWNW 9.7 15.5 13.5-9.3 NW--- 57.7----
2024-03-03 04:00 amWNW 9.7 15.5------- 57.6----
2024-03-03 03:50 amWNW 11.7 17.5 13.1 159.0 NW--- 57.7----
2024-03-03 03:40 amWNW 11.7 15.5------- 57.7----
2024-03-03 03:30 amWNW 11.7 17.5------- 57.7----
2024-03-03 03:20 amWNW 11.7 15.5 13.8 148.7 NW--- 57.7----
2024-03-03 03:10 amWNW 11.7 15.5 13.8-8.7 NW--- 57.7----
2024-03-03 03:00 amWNW 9.7 15.5------- 57.7----
2024-03-03 02:50 amWNW 11.7 15.5 15.7 139.6WNW--- 57.7----
2024-03-03 02:40 amWNW 11.7 15.5------- 57.7----
2024-03-03 02:30 amWNW 13.6 17.5------- 57.7----
2024-03-03 02:20 am W 11.7 17.5 14.1 148.7WNW--- 57.7----
2024-03-03 02:10 am W 11.7 15.5 14.1-8.7WNW--- 57.7----
2024-03-03 02:00 am W 11.7 15.5------- 57.7----
2024-03-03 01:50 amWNW 13.6 17.5 14.4 149.1 NW--- 57.7----
2024-03-03 01:40 am W 11.7 15.5------- 57.7----
2024-03-03 01:30 amWNW 11.7 17.5------- 57.7----
2024-03-03 01:20 amWNW 13.6 17.5 14.4 158.8 NW--- 57.7----
2024-03-03 01:10 am W 15.5 19.4 14.4-8.8 NW--- 57.7----
2024-03-03 01:00 am W 13.6 19.4------- 57.7----
2024-03-03 12:50 am W 13.6 19.4 13.8 139.0 NW--- 57.9----
2024-03-03 12:40 am W 13.6 17.5------- 57.7----
2024-03-03 12:30 amWNW 13.6 19.4------- 57.9----
2024-03-03 12:20 amWNW 15.5 21.4 14.1 149.1 NW--- 57.7----
2024-03-03 12:10 amWNW 15.5 21.4------- 57.7----
2024-03-03 12:00 amWNW 17.5 23.3 14.1-9.1 NW--- 57.7----
2024-03-02 11:50 pmWNW 21.4 27.2 13.8 148.6 NW--------
2024-03-02 11:40 pmWSW 17.5 25.3------- 57.7----
2024-03-02 11:30 pmWSW 15.5 21.4------- 57.7----
2024-03-02 11:20 pmWSW 17.5 21.4 14.1 139.0 NW--- 57.7----
2024-03-02 11:10 pmWSW 19.4 23.3------- 57.7----
2024-03-02 11:00 pmWSW 19.4 23.3------- 57.7----
2024-03-02 10:50 pmWSW 17.5 21.4 14.1 159.2 NW--- 57.7----
2024-03-02 10:40 pmWSW 17.5 23.3------- 57.7----
2024-03-02 10:30 pmWSW 19.4 27.2------- 57.7----
2024-03-02 10:20 pmWSW 15.5 19.4 13.8 159.3 NW--- 57.7----
2024-03-02 10:10 pmWSW 15.5 19.4------- 57.7----
2024-03-02 10:00 pmWSW 15.5 19.4------- 57.7----
2024-03-02 09:50 pmWSW 15.5 19.4 14.1 159.4 NW--- 57.9----
2024-03-02 09:40 pmWSW 15.5 19.4------- 57.9----
2024-03-02 09:30 pmWSW 15.5 19.4------- 57.9----
2024-03-02 09:20 pmWSW 15.5 19.4 13.1 149.1WNW--- 57.9----
2024-03-02 09:10 pmWSW 15.5 19.4------- 57.9----
2024-03-02 09:00 pmWSW 15.5 19.4------- 57.9----
2024-03-02 08:50 pmWSW 13.6 19.4 15.7 149.7WNW--- 57.9----
2024-03-02 08:40 pm SW 13.6 15.5------- 57.9----
2024-03-02 08:30 pm SW 13.6 17.5------- 57.9----
2024-03-02 08:20 pmWSW 13.6 17.5 14.8 159.5WNW--- 57.9----
2024-03-02 08:10 pmWSW 13.6 17.5------- 57.9----
2024-03-02 08:00 pmWSW 15.5 19.4------- 57.9----
2024-03-02 07:50 pmWSW 15.5 19.4 14.1 159.4 NW--- 57.9----
2024-03-02 07:40 pmWSW 15.5 21.4------- 57.9----
2024-03-02 07:30 pmWSW 15.5 19.4------- 57.9----
2024-03-02 07:20 pmWSW 13.6 17.5 13.5 159.5WNW--- 57.9----
2024-03-02 07:10 pmWSW 13.6 17.5 13.5-9.5WNW--- 57.9----
2024-03-02 07:00 pmWSW 15.5 21.4------- 57.9----
2024-03-02 06:50 pm SW 13.6 17.5 14.4 159.6 NW--- 57.9----
2024-03-02 06:40 pm SW 11.7 17.5------- 57.9----
2024-03-02 06:30 pm SW 11.7 15.5------- 57.9----
2024-03-02 06:20 pm SW 13.6 15.5 13.8 159.2 NW--- 57.9----
2024-03-02 06:10 pmWSW 15.5 21.4 13.8-9.2 NW--- 57.9----
2024-03-02 06:00 pm SW 15.5 23.3------- 57.9----
2024-03-02 05:50 pm SW 13.6 15.5 14.1 149.9WNW--- 57.9----
2024-03-02 05:40 pm SW 9.7 13.6------- 57.9----
2024-03-02 05:30 pm SW 11.7 13.6------- 58.1----
2024-03-02 05:20 pm SW 11.7 15.5 14.4 1510.1WNW--- 58.1----
2024-03-02 05:10 pmWSW 11.7 13.6------- 58.1----
2024-03-02 05:00 pm SW 11.7 15.5------- 58.1----
2024-03-02 04:50 pm SW 11.7 13.6 13.5 159.9WNW--- 58.1----
2024-03-02 04:40 pm SW 9.7 11.7------- 58.1----
2024-03-02 04:30 pm SW 9.7 11.7------- 58.1----
2024-03-02 04:20 pmWSW 9.7 13.6 13.5 169.9 NW--- 58.1----
2024-03-02 04:10 pmWSW 9.7 13.6 13.5-9.9 NW--- 58.1----
2024-03-02 04:00 pmWSW 9.7 13.6------- 58.1----
2024-03-02 03:50 pm W 9.7 13.6 14.1 159.5 NW--- 58.1----
2024-03-02 03:40 pmWSW 7.8 13.6------- 58.1----
2024-03-02 03:20 pm W 9.7 13.6 14.4 169.9 NW--- 58.1----
2024-03-02 03:10 pm W 9.7 13.6------- 58.1----
2024-03-02 03:00 pm W 9.7 13.6------- 58.1----
2024-03-02 02:50 pm W 9.7 13.6 12.5 149.6 NW--- 58.1----
2024-03-02 02:40 pm W 9.7 13.6 12.5-9.6 NW--- 57.9----
2024-03-02 02:30 pm W 11.7 15.5------- 57.9----
2024-03-02 02:20 pm W 11.7 15.5 15.1 1610.2 NW--- 57.9----
2024-03-02 02:10 pm W 11.7 15.5------- 57.9----
2024-03-02 02:00 pm W 11.7 17.5------- 57.9----
2024-03-02 01:50 pm W 11.7 17.5 14.1 159.8 NW--- 57.9----
2024-03-02 01:40 pmWNW 9.7 17.5------- 57.9----
2024-03-02 01:30 pmWNW 9.7 13.6------- 57.9----
2024-03-02 01:20 pmWNW 9.7 15.5 14.8 1510.1 NW--- 57.9----
2024-03-02 01:10 pmWNW 9.7 15.5 14.8-10.1 NW--- 57.9----
2024-03-02 01:00 pmWNW 9.7 15.5------- 57.9----
2024-03-02 12:50 pmWNW 11.7 17.5 14.4 1610.3 NW--- 57.9----
2024-03-02 12:40 pmWNW 11.7 17.5 14.4-10.3 NW--- 57.9----
2024-03-02 12:30 pmWNW 9.7 13.6------- 57.9----
2024-03-02 12:20 pmWNW 7.8 13.6 14.4 169.9 NW--- 57.9----
2024-03-02 12:10 pmWNW 9.7 13.6 14.4-9.9 NW--- 57.9----
2024-03-02 12:00 pmWNW 9.7 15.5------- 57.9----
2024-03-02 11:50 amWNW 9.7 13.6 14.4 169.9 NW--- 57.9----
2024-03-02 11:40 amWNW 9.7 15.5------- 57.7----
2024-03-02 11:30 amWNW 9.7 15.5------- 57.9----
2024-03-02 11:20 amWNW 13.6 17.5 13.8 1610.1 NW--- 57.9----
2024-03-02 11:10 am W 13.6 17.5 13.8-10.1 NW--- 57.9----
2024-03-02 11:00 am W 11.7 15.5------- 57.9----
2024-03-02 10:50 amWSW 9.7 13.6 14.8-10.1 NW--- 57.9----
2024-03-02 10:40 am--- 14.8 1610.1 NW--------
2024-03-02 10:30 amWSW 9.7 15.5------- 57.7----
2024-03-02 10:20 am W 11.7 15.5 13.5 139.8 NW--- 57.7----
2024-03-02 10:10 am W 9.7 15.5 13.5-9.8 NW--- 57.9----
2024-03-02 10:00 am W 9.7 13.6------- 57.9----
2024-03-02 09:50 am W 9.7 13.6 15.1 1410.1 NW--- 57.9----
2024-03-02 09:40 am W 11.7 15.5------- 57.9----
2024-03-02 09:30 am W 11.7 15.5------- 57.9----
2024-03-02 09:20 am W 11.7 15.5 12.8 169.3 NW--- 57.9----
2024-03-02 09:10 am W 13.6 17.5 12.8-9.3 NW--- 57.9----
2024-03-02 09:00 am W 13.6 17.5------- 57.9----
2024-03-02 08:50 am W 11.7 15.5 14.4 169.8 NW--- 57.9----
2024-03-02 08:40 am W 9.7 13.6------- 57.9----
2024-03-02 08:30 am W 7.8 11.7------- 57.9----
2024-03-02 08:20 am W 9.7 13.6 14.1 169.8 NW--- 57.9----
2024-03-02 08:10 amWNW 11.7 15.5------- 57.9----
2024-03-02 08:00 am W 13.6 17.5------- 57.9----
2024-03-02 07:50 am W 15.5 19.4 13.8 169.6 NW--- 57.9----
2024-03-02 07:40 am W 13.6 19.4------- 57.9----
2024-03-02 07:30 am W 15.5 19.4------- 57.9----
2024-03-02 07:20 amWSW 17.5 23.3 13.1 159.4 NW--- 57.9----
2024-03-02 07:10 am SW 13.6 19.4 13.1-9.4 NW--- 58.1----
2024-03-02 07:00 amWSW 11.7 15.5------- 58.1----
2024-03-02 06:50 amWSW 11.7 13.6 13.8 169.8 NW--- 58.1----

Detailed Wave Summary
for 46011 as of (6:40 am PST)
1440 GMT on 03/03/2024:

These wave data are displayed in rounded times.

     

Click on the graph icon in the table below to see a time series plot of the last five days of that observation.

5-day plot - Significant Wave Height Significant Wave Height (WVHT): 12.5 ft
5-day plot - Swell Height Swell Height (SwH): 12.5 ft
5-day plot - Swell Period Swell Period (SwP): 14.8 sec
5-day plot - Swell Direction Swell Direction (SwD): NW
5-day plot - Wind Wave Height Wind Wave Height (WWH): 1.6 ft
5-day plot - Wind Wave Period Wind Wave Period (WWP): 3.7 sec
5-day plot - Wind Wave Direction Wind Wave Direction (WWD): W
5-day plot - Wave Steepness Wave Steepness (STEEPNESS): SWELL
5-day plot - Average Wave Period Average Wave Period (APD): 9.7 sec
Previous observations
TIME
(PST)
5-day plot - Wave Height
WVHT
ft
5-day plot - Swell Height
SwH
ft
5-day plot - Swell Period
SwP
sec
5-day plot - Swell Direction
SwD
 
5-day plot - Wind Wave Height
WWH
ft
5-day plot - Wind Wave Period
WWP
sec
5-day plot - Wind Wave Direction
WWD
 
5-day plot - Wave Steepness
STEEPNESS
 
5-day plot - Average Wave Period
APD
sec
2024-03-03 06:10 am 11.5 10.8 13.8WNW 3.0 5.6 WSW SWELL 8.9
2024-03-03 05:40 am 14.4 14.1 13.8 NW 2.3 4.3 W SWELL 9.7
2024-03-03 05:10 am 11.8 11.2 14.8 NW 3.9 5.6 W SWELL 8.6
2024-03-03 04:40 am 13.1 12.5 12.1WNW 4.3 5.6 W AVERAGE 9.3
2024-03-03 04:10 am 13.5 13.1 14.8 NW 2.6 4.8 W SWELL 9.3
2024-03-03 03:40 am 13.1 12.8 14.8 NW 3.3 4.5 WNW SWELL 9.0
2024-03-03 03:10 am 13.8 13.5 13.8 NW 3.6 4.3 W SWELL 8.7
2024-03-03 02:40 am 15.7 15.4 12.9WNW 3.9 5.0 WNW AVERAGE 9.6
2024-03-03 02:10 am 14.1 13.5 13.8WNW 4.3 5.6 W SWELL 8.7
2024-03-03 01:40 am 14.4 14.1 13.8 NW 3.9 4.8 W SWELL 9.1
2024-03-03 01:10 am 14.4 13.1 14.8 NW 5.9 6.7 WNW SWELL 8.8
2024-03-03 12:40 am 13.8 12.8 12.9 NW 4.9 5.3 WSW SWELL 9.0
2024-03-03 12:10 am 14.1 13.1 13.8 NW 5.9 7.1 WNW SWELL 9.1
2024-03-02 11:40 pm 13.8 11.8 13.8 NW 6.6 7.7 W SWELL 8.6
2024-03-02 11:10 pm 14.1 12.8 12.9 NW 5.6 5.9 W SWELL 9.0
2024-03-02 10:40 pm 14.1 13.5 14.8 NW 4.3 5.6 W SWELL 9.2
2024-03-02 10:10 pm 13.8 12.8 14.8 NW 5.2 5.9 W SWELL 9.3
2024-03-02 09:40 pm 14.1 13.8 14.8 NW 3.9 5.3 W SWELL 9.4
2024-03-02 09:10 pm 13.1 12.1 13.8WNW 5.2 5.0 W SWELL 9.1
2024-03-02 08:40 pm 15.7 15.1 13.8WNW 4.3 6.2 WNW SWELL 9.7
2024-03-02 08:10 pm 14.8 14.1 14.8WNW 4.6 6.7 WNW SWELL 9.5
2024-03-02 07:40 pm 14.1 13.1 14.8 NW 4.9 7.1 WNW SWELL 9.4
2024-03-02 07:10 pm 13.5 12.8 14.8WNW 4.3 5.9 W SWELL 9.5
2024-03-02 06:40 pm 14.4 14.1 14.8 NW 3.6 5.0 W SWELL 9.6
2024-03-02 06:10 pm 13.8 12.5 14.8 NW 5.6 7.7 W SWELL 9.2
2024-03-02 05:40 pm 14.1 13.8 13.8WNW 2.6 4.2 WSW SWELL 9.9
2024-03-02 05:10 pm 14.4 14.1 14.8WNW 3.3 5.6 W SWELL 10.1
2024-03-02 04:40 pm 13.5 13.1 14.8WNW 2.0 4.3 W SWELL 9.9
2024-03-02 04:10 pm 13.5 13.5 16.0 NW 2.3 4.5 W SWELL 9.9
2024-03-02 03:40 pm 14.1 14.1 14.8 NW 2.0 4.2 W SWELL 9.5
2024-03-02 03:10 pm 14.4 14.1 16.0 NW 2.3 4.8 W SWELL 9.9
2024-03-02 02:40 pm 12.5 12.5 13.8 NW 2.3 4.3 WSW SWELL 9.6
2024-03-02 02:10 pm 15.1 14.8 16.0 NW 3.0 5.3 W SWELL 10.2
2024-03-02 01:40 pm 14.1 13.8 14.8 NW 2.3 3.6 W SWELL 9.8
2024-03-02 01:10 pm 14.8 14.8 14.8 NW 2.6 4.8 W SWELL 10.1
2024-03-02 12:40 pm 14.4 14.1 16.0 NW 3.3 5.9 W SWELL 10.3
2024-03-02 12:10 pm 14.4 14.4 16.0 NW 2.3 4.5 WSW SWELL 9.9
2024-03-02 11:40 am 14.4 14.1 16.0 NW 2.3 5.0 WSW SWELL 9.9
2024-03-02 11:10 am 13.8 13.1 16.0 NW 3.6 4.2 WSW SWELL 10.1
2024-03-02 10:40 am 14.8 14.8 16.0 NW 2.6 5.0 W SWELL 10.1
2024-03-02 10:10 am 13.5 13.1 12.9 NW 2.6 4.5 W SWELL 9.8
2024-03-02 09:40 am 15.1 14.8 13.8 NW 3.0 5.0 W SWELL 10.1
2024-03-02 09:10 am 12.8 12.5 16.0 NW 3.9 5.6 W SWELL 9.3
2024-03-02 08:40 am 14.4 14.4 16.0 NW 2.3 4.3 WSW SWELL 9.8
2024-03-02 08:10 am 14.1 13.8 16.0 NW 3.3 4.8 W SWELL 9.8
2024-03-02 07:40 am 13.8 13.1 16.0 NW 4.3 5.3 W SWELL 9.6
2024-03-02 07:10 am 13.1 12.5 14.8 NW 3.6 5.9 W SWELL 9.4

Plot of wave energy versus frequency (and period)